Time;durP1;ratioP1;P1;durP2;ratioP2;P2;SDS_P1;SDS_P2;PMS_P1;PMS_P2;Temp;Humidity;BMP_temperature;BMP_pressure;BME280_temperature;BME280_humidity;BME280_pressure;Samples;Min_cycle;Max_cycle;Signal;HPM_P1;HPM_P2
2021/07/29 00:00:09;;;;;;;10.82;5.57;;;;;;;24.12;68.90;100572.69;5057918;28;20048;-69
2021/07/29 00:02:54;;;;;;;12.70;6.60;;;;;;;23.91;69.03;100583.97;5050978;28;20067;-68
2021/07/29 00:05:39;;;;;;;13.98;6.80;;;;;;;23.54;70.41;100581.84;5053799;28;20044;-69
2021/07/29 00:08:23;;;;;;;13.05;6.68;;;;;;;23.84;69.98;100568.94;5049902;28;20060;-68
2021/07/29 00:11:10;;;;;;;11.25;5.82;;;;;;;23.96;69.20;100576.00;5059886;28;20048;-69
2021/07/29 00:13:58;;;;;;;10.23;6.20;;;;;;;24.01;69.04;100569.22;5061532;28;20052;-69
2021/07/29 00:16:45;;;;;;;13.82;6.68;;;;;;;24.00;68.64;100571.19;5055397;28;20517;-69
2021/07/29 00:19:30;;;;;;;12.18;6.63;;;;;;;23.95;68.68;100557.75;5061458;28;20532;-68
2021/07/29 00:22:14;;;;;;;21.67;6.40;;;;;;;23.89;68.54;100556.59;5061247;28;20386;-68
2021/07/29 00:25:00;;;;;;;12.38;6.82;;;;;;;23.86;68.55;100552.66;5060095;28;20048;-69
2021/07/29 00:27:46;;;;;;;15.75;5.70;;;;;;;23.87;68.50;100559.78;5061173;28;20052;-68
2021/07/29 00:30:30;;;;;;;9.25;5.85;;;;;;;23.82;68.36;100554.66;5061251;28;20052;-69
2021/07/29 00:33:16;;;;;;;9.52;5.93;;;;;;;23.88;68.23;100558.56;5061197;28;20044;-69
2021/07/29 00:36:00;;;;;;;10.95;6.20;;;;;;;23.87;68.22;100557.00;5057011;28;20056;-69
2021/07/29 00:38:46;;;;;;;14.95;6.32;;;;;;;23.85;68.12;100555.84;5061344;28;20040;-69
2021/07/29 00:41:30;;;;;;;11.70;6.05;;;;;;;23.62;68.39;100561.19;5060965;28;20056;-69
2021/07/29 00:44:15;;;;;;;9.98;5.50;;;;;;;23.62;69.05;100555.63;5046138;28;20048;-68
2021/07/29 00:47:01;;;;;;;16.80;6.32;;;;;;;23.21;69.60;100563.78;5060846;28;20056;-69
2021/07/29 00:49:47;;;;;;;11.88;5.68;;;;;;;23.37;70.25;100564.88;5060875;28;20410;-68
2021/07/29 00:52:33;;;;;;;14.35;5.43;;;;;;;23.63;69.35;100562.75;5060715;28;20064;-68
2021/07/29 00:55:19;;;;;;;10.80;5.90;;;;;;;23.80;68.29;100561.84;5058713;28;20055;-68
2021/07/29 00:58:04;;;;;;;17.42;5.90;;;;;;;23.84;67.84;100557.03;5060632;28;20510;-69
2021/07/29 01:00:49;;;;;;;11.98;5.60;;;;;;;23.83;67.88;100559.00;5060717;28;20506;-69
2021/07/29 01:03:34;;;;;;;10.20;5.53;;;;;;;23.85;67.61;100555.84;5060571;28;20076;-68
2021/07/29 01:06:19;;;;;;;10.35;5.20;;;;;;;23.82;67.81;100562.22;5054904;28;20052;-68
2021/07/29 01:09:09;;;;;;;15.07;6.60;;;;;;;23.15;68.43;100559.84;5060363;28;20673;-68
2021/07/29 01:11:54;;;;;;;12.27;6.50;;;;;;;22.79;69.67;100554.47;5060470;28;20049;-69
2021/07/29 01:14:39;;;;;;;13.43;7.50;;;;;;;22.57;70.61;100550.13;5060012;28;20052;-69
2021/07/29 01:17:24;;;;;;;8.57;6.15;;;;;;;22.58;71.77;100544.22;5060396;28;20072;-68
2021/07/29 01:20:09;;;;;;;9.15;5.13;;;;;;;22.93;71.79;100554.41;5060221;28;20508;-68
2021/07/29 01:22:54;;;;;;;12.85;5.85;;;;;;;22.96;69.43;100548.03;5059278;28;20056;-68
2021/07/29 01:25:39;;;;;;;12.75;6.13;;;;;;;22.95;69.86;100552.03;5057079;28;20052;-68
2021/07/29 01:28:24;;;;;;;11.95;5.40;;;;;;;22.88;69.36;100552.03;5060149;28;20052;-68
2021/07/29 01:31:09;;;;;;;11.52;6.63;;;;;;;22.50;70.91;100555.72;5060015;28;20067;-68
2021/07/29 01:33:55;;;;;;;8.15;5.45;;;;;;;22.53;71.06;100549.38;5060046;28;20055;-68
2021/07/29 01:36:40;;;;;;;8.85;5.30;;;;;;;22.75;71.34;100547.34;5054332;28;20406;-69
2021/07/29 01:39:25;;;;;;;8.32;5.32;;;;;;;22.98;70.97;100551.22;5059943;28;20056;-68
2021/07/29 01:42:10;;;;;;;12.38;6.70;;;;;;;22.37;71.03;100549.78;5059954;28;20044;-68
2021/07/29 01:44:54;;;;;;;16.30;6.57;;;;;;;22.15;72.13;100551.81;5058718;28;20068;-69
2021/07/29 01:47:40;;;;;;;11.60;5.38;;;;;;;22.32;72.92;100550.19;5059722;28;20064;-68
2021/07/29 01:50:25;;;;;;;11.85;6.50;;;;;;;22.57;71.32;100555.69;5059569;28;20052;-69
2021/07/29 01:53:10;;;;;;;15.88;5.70;;;;;;;22.77;70.88;100556.84;5059683;28;20047;-68
2021/07/29 01:55:54;;;;;;;12.85;5.75;;;;;;;22.84;71.08;100556.81;5055763;28;20072;-68
2021/07/29 01:58:39;;;;;;;10.95;5.53;;;;;;;23.03;70.20;100552.78;5059575;28;20048;-69
2021/07/29 02:01:24;;;;;;;9.43;6.13;;;;;;;23.01;69.17;100550.38;5059615;28;20056;-69
2021/07/29 02:04:10;;;;;;;12.05;5.63;;;;;;;22.60;70.12;100546.59;5059381;28;20521;-69
2021/07/29 02:06:56;;;;;;;14.15;5.40;;;;;;;22.81;69.91;100556.81;5052935;28;20043;-69
2021/07/29 02:09:41;;;;;;;10.93;6.15;;;;;;;22.22;71.57;100545.47;5059317;28;20048;-68
2021/07/29 02:12:25;;;;;;;11.45;5.45;;;;;;;22.39;72.77;100549.41;5059197;28;20044;-68
2021/07/29 02:15:11;;;;;;;11.40;5.57;;;;;;;22.54;70.36;100548.19;5057570;28;20052;-69
2021/07/29 02:18:00;;;;;;;13.80;7.00;;;;;;;22.38;71.38;100551.38;5059159;28;20060;-68
2021/07/29 02:20:45;;;;;;;10.52;5.38;;;;;;;22.70;71.28;100545.75;5059143;28;20048;-68
2021/07/29 02:23:30;;;;;;;15.15;6.25;;;;;;;22.58;69.60;100543.41;5059106;28;20513;-68
2021/07/29 02:26:14;;;;;;;10.25;6.15;;;;;;;22.50;73.00;100552.94;5054418;28;20056;-68
2021/07/29 02:29:00;;;;;;;9.13;5.30;;;;;;;22.96;70.05;100545.25;5058862;28;20044;-68
2021/07/29 02:31:45;;;;;;;10.32;5.47;;;;;;;23.12;69.37;100555.88;5059012;28;20071;-68
2021/07/29 02:34:30;;;;;;;19.85;5.50;;;;;;;23.35;68.25;100545.06;5058587;28;20067;-68
2021/07/29 02:37:15;;;;;;;10.40;4.60;;;;;;;23.44;67.41;100542.63;5058913;28;20505;-67
2021/07/29 02:39:59;;;;;;;12.98;5.63;;;;;;;23.45;67.35;100557.31;5058779;28;20048;-68
2021/07/29 02:42:44;;;;;;;11.75;5.68;;;;;;;23.45;67.35;100557.31;5058822;28;20060;-68
2021/07/29 02:45:29;;;;;;;9.70;5.10;;;;;;;23.35;67.53;100558.94;5056084;28;20048;-68
2021/07/29 02:48:14;;;;;;;13.18;6.38;;;;;;;23.11;67.43;100559.84;5058121;28;20063;-67
2021/07/29 02:50:58;;;;;;;12.30;5.47;;;;;;;22.78;68.41;100563.97;5057461;28;20052;-67
2021/07/29 02:53:43;;;;;;;16.65;5.32;;;;;;;22.91;69.53;100567.88;5058595;28;20052;-67
2021/07/29 02:56:28;;;;;;;16.50;5.45;;;;;;;22.67;69.21;100567.94;5053304;28;20048;-68
2021/07/29 02:59:13;;;;;;;12.68;5.60;;;;;;;22.58;69.06;100571.13;5058495;28;20052;-67
2021/07/29 03:01:58;;;;;;;19.42;6.28;;;;;;;22.37;70.07;100565.63;5058578;28;20056;-68
2021/07/29 03:04:44;;;;;;;6.45;4.90;;;;;;;22.47;69.80;100570.34;5057143;28;20055;-67
2021/07/29 03:07:31;;;;;;;22.17;8.45;;;;;;;22.39;69.97;100585.44;5058764;28;20052;-68
2021/07/29 03:10:16;;;;;;;12.40;5.13;;;;;;;22.33;70.25;100581.47;5058249;28;20052;-68
2021/07/29 03:13:04;;;;;;;11.18;5.30;;;;;;;22.27;69.86;100571.97;5058416;28;20048;-67
2021/07/29 03:15:48;;;;;;;13.18;5.57;;;;;;;22.15;70.03;100578.72;5054850;28;20526;-68
2021/07/29 03:18:34;;;;;;;12.52;5.45;;;;;;;22.33;69.71;100581.47;5058358;28;20112;-67
2021/07/29 03:21:19;;;;;;;10.90;5.93;;;;;;;22.44;69.10;100593.34;5058240;28;20051;-68
2021/07/29 03:24:04;;;;;;;9.05;5.20;;;;;;;22.25;70.42;100591.75;5058270;28;20060;-68
2021/07/29 03:26:49;;;;;;;13.07;6.65;;;;;;;22.19;70.87;100596.16;5037207;28;20509;-68
2021/07/29 03:29:33;;;;;;;14.15;5.85;;;;;;;22.12;70.97;100585.84;5058158;28;20506;-68
2021/07/29 03:32:18;;;;;;;8.73;4.38;;;;;;;22.41;71.65;100596.88;5058164;28;20063;-68
2021/07/29 03:35:04;;;;;;;10.15;4.80;;;;;;;22.52;70.30;100594.91;5056899;28;20506;-69
2021/07/29 03:37:49;;;;;;;8.82;4.80;;;;;;;22.65;69.99;100598.06;5058146;28;20052;-67
2021/07/29 03:40:35;;;;;;;10.57;4.95;;;;;;;22.64;68.69;100602.81;5058171;28;20048;-68
2021/07/29 03:43:19;;;;;;;12.93;5.45;;;;;;;22.82;69.20;100602.78;5058114;28;20072;-68
2021/07/29 03:46:04;;;;;;;9.60;4.60;;;;;;;22.73;68.94;100597.66;5056337;28;20056;-67
2021/07/29 03:48:49;;;;;;;37.97;6.80;;;;;;;22.94;68.29;100594.81;5061854;28;20100;-68
2021/07/29 03:51:34;;;;;;;14.02;6.38;;;;;;;22.83;67.55;100599.59;5061977;28;20402;-68
2021/07/29 03:54:19;;;;;;;14.52;5.68;;;;;;;22.33;68.86;100595.31;5061797;28;20044;-67
2021/07/29 03:57:04;;;;;;;9.88;5.07;;;;;;;22.48;69.67;100602.44;5061886;28;20048;-67
2021/07/29 03:59:51;;;;;;;6.80;4.80;;;;;;;22.74;68.71;100599.25;5061705;28;20047;-68
2021/07/29 04:02:36;;;;;;;13.13;6.35;;;;;;;22.75;68.69;100603.59;5061703;28;20047;-67
2021/07/29 04:05:20;;;;;;;10.27;4.35;;;;;;;22.96;68.31;100611.81;5058666;28;20056;-68
2021/07/29 04:08:05;;;;;;;6.30;4.63;;;;;;;23.09;67.46;100616.94;5046522;28;20512;-67
2021/07/29 04:10:51;;;;;;;13.85;4.97;;;;;;;23.10;67.50;100608.22;5061606;28;20043;-68
2021/07/29 04:13:36;;;;;;;7.30;4.63;;;;;;;23.10;67.37;100618.53;5061541;28;20052;-68
2021/07/29 04:16:21;;;;;;;13.50;5.28;;;;;;;23.20;67.01;100620.47;5041754;28;20052;-68
2021/07/29 04:19:06;;;;;;;14.75;5.75;;;;;;;23.00;65.63;100609.84;5060878;28;20060;-67
2021/07/29 04:21:52;;;;;;;14.75;5.93;;;;;;;22.57;67.40;100611.13;5061269;28;20051;-67
2021/07/29 04:24:37;;;;;;;11.07;5.78;;;;;;;22.53;67.77;100616.69;5061085;28;20399;-68
2021/07/29 04:27:22;;;;;;;10.13;5.15;;;;;;;22.81;67.88;100609.50;5061319;28;20063;-68
2021/07/29 04:30:07;;;;;;;12.60;5.35;;;;;;;23.02;67.10;100613.00;5061092;28;20048;-67
2021/07/29 04:32:53;;;;;;;12.68;5.28;;;;;;;23.24;65.82;100618.47;5061218;28;20052;-67
2021/07/29 04:35:38;;;;;;;11.05;5.13;;;;;;;23.38;65.20;100624.72;5058121;28;20056;-67
2021/07/29 04:38:23;;;;;;;12.90;5.55;;;;;;;23.43;64.87;100617.97;5061094;28;20060;-68
2021/07/29 04:41:08;;;;;;;17.67;5.10;;;;;;;23.41;64.96;100623.94;5060958;28;20044;-67
2021/07/29 04:43:53;;;;;;;20.58;6.07;;;;;;;23.36;64.95;100620.78;5060850;28;20056;-68
2021/07/29 04:46:39;;;;;;;17.80;6.88;;;;;;;23.38;65.25;100629.50;5054719;28;20521;-68
2021/07/29 04:49:24;;;;;;;18.20;5.97;;;;;;;23.43;65.10;100617.97;5060876;28;20060;-68
2021/07/29 04:52:09;;;;;;;13.73;5.68;;;;;;;23.33;64.99;100627.13;5054120;28;20513;-67
2021/07/29 04:54:54;;;;;;;9.68;5.95;;;;;;;23.40;65.36;100629.88;5059880;28;20052;-67
2021/07/29 04:57:39;;;;;;;15.05;6.63;;;;;;;23.49;64.91;100633.03;5060647;28;20048;-67
2021/07/29 05:00:24;;;;;;;14.38;5.97;;;;;;;23.47;65.04;100629.88;5060629;28;20052;-68
2021/07/29 05:03:09;;;;;;;11.95;5.68;;;;;;;23.50;65.15;100634.63;5060561;28;20044;-68
2021/07/29 05:05:54;;;;;;;14.05;5.80;;;;;;;23.51;65.77;100630.66;5054197;28;20051;-68
2021/07/29 05:08:43;;;;;;;14.50;6.05;;;;;;;23.60;65.23;100630.19;5060416;28;20056;-68
2021/07/29 05:11:28;;;;;;;17.60;6.78;;;;;;;23.59;65.00;100632.19;5060469;28;20051;-68
2021/07/29 05:14:12;;;;;;;12.73;6.38;;;;;;;23.65;65.58;100638.91;5060362;28;20052;-67
2021/07/29 05:17:01;;;;;;;15.48;6.50;;;;;;;23.70;65.57;100641.25;5053764;28;20056;-67
2021/07/29 05:19:46;;;;;;;20.65;6.90;;;;;;;23.67;65.10;100644.81;5060589;28;20391;-69
2021/07/29 05:22:31;;;;;;;20.70;6.93;;;;;;;23.76;64.60;100650.75;5060027;28;20063;-70
2021/07/29 05:25:22;;;;;;;23.75;6.28;;;;;;;23.81;64.40;100644.75;5058235;28;20048;-68
2021/07/29 05:28:07;;;;;;;9.73;6.63;;;;;;;23.82;64.44;100643.53;5060020;28;20394;-67
2021/07/29 05:30:52;;;;;;;14.82;6.35;;;;;;;23.80;64.85;100650.72;5060106;28;20052;-68
2021/07/29 05:33:37;;;;;;;19.98;7.78;;;;;;;23.53;66.40;100650.47;5057309;28;20040;-74
2021/07/29 05:36:23;;;;;;;18.60;7.82;;;;;;;23.35;67.62;100656.09;5053264;28;20521;-74
2021/07/29 05:39:09;;;;;;;21.48;8.23;;;;;;;23.35;68.29;100655.28;5053442;28;20044;-73
2021/07/29 05:41:54;;;;;;;13.20;7.93;;;;;;;23.18;68.96;100654.16;5057287;28;20099;-73
2021/07/29 05:44:39;;;;;;;15.38;7.95;;;;;;;23.32;68.50;100651.31;5050898;28;20058;-74
2021/07/29 05:47:24;;;;;;;15.35;8.00;;;;;;;23.28;67.90;100656.09;5052243;28;20521;-74
2021/07/29 05:50:10;;;;;;;16.38;9.35;;;;;;;23.32;67.59;100659.66;5051500;28;20048;-73
2021/07/29 05:52:55;;;;;;;15.80;8.85;;;;;;;23.32;66.92;100656.88;5052201;28;20044;-73
2021/07/29 05:55:42;;;;;;;20.20;9.88;;;;;;;23.47;66.52;100665.94;5038204;28;20052;-73
2021/07/29 05:58:27;;;;;;;19.48;9.57;;;;;;;23.65;66.23;100655.56;5051924;28;20525;-73
2021/07/29 06:01:12;;;;;;;14.68;8.27;;;;;;;23.72;65.73;100661.06;5053916;28;20219;-74
2021/07/29 06:04:00;;;;;;;12.07;9.02;;;;;;;23.68;65.76;100665.84;5051970;28;20422;-74
2021/07/29 06:06:45;;;;;;;16.08;8.43;;;;;;;23.79;65.57;100666.56;5049966;28;20048;-73
2021/07/29 06:09:30;;;;;;;16.52;7.72;;;;;;;24.01;64.72;100674.78;5042266;28;20056;-74
2021/07/29 06:12:17;;;;;;;12.43;7.90;;;;;;;24.14;64.34;100675.84;5055369;28;20048;-73
2021/07/29 06:15:02;;;;;;;17.48;10.27;;;;;;;24.19;63.86;100678.22;5051336;28;20048;-73
2021/07/29 06:17:54;;;;;;;17.23;9.20;;;;;;;24.34;63.44;100684.47;5048957;28;20053;-74
2021/07/29 06:20:41;;;;;;;20.33;10.60;;;;;;;24.28;63.77;100682.13;5054337;28;20048;-73
2021/07/29 06:23:26;;;;;;;20.65;10.63;;;;;;;24.50;62.86;100679.97;5052886;28;20414;-73
2021/07/29 06:26:11;;;;;;;17.95;9.93;;;;;;;24.53;63.22;100693.03;5054076;28;20037;-74
2021/07/29 06:28:56;;;;;;;21.50;10.75;;;;;;;24.50;63.44;100685.53;5055297;28;20060;-74
2021/07/29 06:31:41;;;;;;;21.52;10.27;;;;;;;24.61;64.01;100680.66;5052399;28;20033;-73
2021/07/29 06:34:26;;;;;;;20.85;10.95;;;;;;;24.82;63.67;100687.22;5051231;28;20049;-74
2021/07/29 06:37:11;;;;;;;18.30;11.07;;;;;;;24.92;63.67;100678.78;5055743;28;20041;-73
2021/07/29 06:39:56;;;;;;;19.98;11.88;;;;;;;25.07;63.19;100685.00;5051569;28;20045;-74
2021/07/29 06:42:41;;;;;;;28.48;12.18;;;;;;;25.28;62.41;100681.19;5050140;28;20041;-74
2021/07/29 06:45:27;;;;;;;18.98;11.45;;;;;;;25.44;61.48;100682.16;5054894;28;20642;-74
2021/07/29 06:48:12;;;;;;;24.55;12.82;;;;;;;25.26;62.11;100684.38;5054368;28;20041;-73
2021/07/29 06:50:56;;;;;;;;;;;;;;;25.54;62.47;100684.03;5052651;28;20044;-74
2021/07/29 06:53:41;;;;;;;23.27;11.17;;;;;;;25.85;61.64;100684.03;5054459;28;20289;-74
2021/07/29 06:56:25;;;;;;;22.02;12.10;;;;;;;26.02;61.26;100685.75;5051812;28;20271;-74
2021/07/29 06:59:10;;;;;;;19.80;11.95;;;;;;;26.08;60.82;100680.50;5050102;28;20033;-74
2021/07/29 07:01:55;;;;;;;27.05;11.93;;;;;;;26.05;60.59;100684.13;5051470;28;20041;-74
2021/07/29 07:04:40;;;;;;;21.85;12.23;;;;;;;26.03;60.35;100681.75;5049085;28;20926;-73
2021/07/29 07:07:25;;;;;;;18.08;9.90;;;;;;;26.22;60.24;100683.88;5047938;28;20417;-70
2021/07/29 07:10:10;;;;;;;29.30;9.13;;;;;;;26.18;58.84;100680.34;5058384;28;20410;-69
2021/07/29 07:12:55;;;;;;;17.58;9.48;;;;;;;26.27;59.03;100677.81;5058267;28;20060;-70
2021/07/29 07:15:43;;;;;;;24.27;11.48;;;;;;;26.24;59.72;100681.47;5055317;28;20052;-69
2021/07/29 07:18:28;;;;;;;29.67;10.23;;;;;;;26.29;58.77;100681.00;5058582;28;20045;-69
2021/07/29 07:21:13;;;;;;;31.63;11.27;;;;;;;26.50;58.46;100677.06;5061159;28;20037;-69
2021/07/29 07:23:58;;;;;;;24.52;10.90;;;;;;;26.35;59.37;100676.50;5062490;28;20045;-69
2021/07/29 07:26:43;;;;;;;19.38;10.63;;;;;;;26.57;58.43;100681.69;5055834;28;20041;-69
2021/07/29 07:29:28;;;;;;;22.95;10.30;;;;;;;26.59;58.51;100684.88;5062348;28;20045;-69
2021/07/29 07:32:13;;;;;;;24.17;10.35;;;;;;;26.86;57.82;100682.78;5062242;28;20037;-69
2021/07/29 07:34:58;;;;;;;17.38;10.48;;;;;;;27.80;54.96;100683.28;5061138;28;20434;-69
2021/07/29 07:37:43;;;;;;;22.30;11.10;;;;;;;28.04;54.04;100693.88;5062161;28;20406;-69
2021/07/29 07:40:28;;;;;;;19.45;12.68;;;;;;;27.37;54.99;100689.78;5062152;28;20041;-70
2021/07/29 07:43:13;;;;;;;17.15;9.55;;;;;;;27.38;55.96;100680.16;5061970;28;20044;-70
2021/07/29 07:45:59;;;;;;;17.92;9.95;;;;;;;27.74;54.89;100683.00;5058232;28;20072;-70
2021/07/29 07:48:45;;;;;;;16.63;9.40;;;;;;;27.69;54.90;100677.13;5061934;28;20048;-70
2021/07/29 07:51:29;;;;;;;14.63;9.63;;;;;;;28.34;53.24;100689.25;5062001;28;20064;-69
2021/07/29 07:54:14;;;;;;;17.05;8.60;;;;;;;28.89;51.72;100685.44;5061964;28;20055;-70
2021/07/29 07:56:59;;;;;;;21.35;8.15;;;;;;;28.97;51.60;100681.19;5055077;28;20543;-70
2021/07/29 07:59:44;;;;;;;15.38;8.93;;;;;;;29.23;50.09;100679.28;5061859;28;20048;-70
2021/07/29 08:02:29;;;;;;;18.58;10.27;;;;;;;29.89;48.84;100667.31;5061741;28;20127;-70
2021/07/29 08:05:14;;;;;;;21.63;11.20;;;;;;;28.97;51.32;100683.22;5059133;28;20041;-70
2021/07/29 08:08:00;;;;;;;18.95;8.88;;;;;;;30.66;46.39;100676.44;5061644;28;20040;-70
2021/07/29 08:10:49;;;;;;;18.67;10.77;;;;;;;32.08;43.10;100677.53;5061612;28;20052;-70
2021/07/29 08:13:33;;;;;;;21.52;11.02;;;;;;;33.81;38.97;100688.88;5061489;28;20044;-70
2021/07/29 08:16:18;;;;;;;17.60;9.00;;;;;;;36.28;34.10;100685.50;5056749;28;20041;-70
2021/07/29 08:19:04;;;;;;;21.95;8.90;;;;;;;36.05;34.26;100683.59;5061426;28;20052;-70
2021/07/29 08:21:49;;;;;;;15.82;8.95;;;;;;;36.99;32.61;100679.19;5061389;28;20055;-70
2021/07/29 08:24:34;;;;;;;18.10;9.10;;;;;;;38.04;30.70;100690.78;5061371;28;20056;-70
2021/07/29 08:27:19;;;;;;;18.77;7.82;;;;;;;39.95;27.64;100685.13;5061199;28;20063;-70
2021/07/29 08:30:04;;;;;;;19.30;8.45;;;;;;;39.00;28.75;100689.97;5061197;28;20414;-70
2021/07/29 08:32:49;;;;;;;13.93;8.13;;;;;;;38.67;29.17;100684.91;5060935;28;20256;-70
2021/07/29 08:35:36;;;;;;;22.83;8.48;;;;;;;40.83;25.98;100686.19;5058360;28;20064;-70
2021/07/29 08:38:20;;;;;;;15.57;7.38;;;;;;;39.04;28.31;100684.00;5061098;28;20613;-70
2021/07/29 08:41:05;;;;;;;17.15;7.80;;;;;;;37.39;31.34;100681.16;5061024;28;20526;-70
2021/07/29 08:43:51;;;;;;;15.82;8.00;;;;;;;36.76;32.03;100672.50;5060545;28;20052;-70
2021/07/29 08:46:43;;;;;;;16.35;6.97;;;;;;;36.59;31.85;100671.47;5040142;28;20076;-70
2021/07/29 08:49:28;;;;;;;10.45;7.03;;;;;;;36.62;31.22;100672.59;5054141;28;20398;-70
2021/07/29 08:52:13;;;;;;;10.85;5.85;;;;;;;39.34;27.78;100674.53;5060865;28;20052;-70
2021/07/29 08:54:59;;;;;;;13.88;7.10;;;;;;;37.95;28.81;100671.03;5059504;28;20048;-67
2021/07/29 08:57:44;;;;;;;14.45;6.93;;;;;;;37.74;30.18;100666.78;5058555;28;20051;-66
2021/07/29 09:00:29;;;;;;;15.95;10.02;;;;;;;38.93;28.39;100667.69;5060656;28;20091;-67
2021/07/29 09:03:23;;;;;;;14.48;8.35;;;;;;;41.42;25.37;100668.41;5060364;28;20045;-68
2021/07/29 09:06:10;;;;;;;;;;;;;;;43.59;22.30;100665.00;5055559;28;20529;-68
2021/07/29 09:08:56;;;;;;;14.35;8.73;;;;;;;39.97;27.46;100659.75;5060252;28;20370;-67
2021/07/29 09:11:40;;;;;;;17.38;9.98;;;;;;;38.14;30.48;100660.09;5060344;28;20056;-67
2021/07/29 09:14:26;;;;;;;20.02;10.20;;;;;;;38.67;29.33;100661.38;5055096;28;20060;-70
2021/07/29 09:17:11;;;;;;;20.90;10.60;;;;;;;36.11;34.36;100637.09;5060303;28;20032;-71
2021/07/29 09:19:56;;;;;;;19.65;9.27;;;;;;;34.70;37.75;100637.22;5047005;28;20045;-70
2021/07/29 09:22:42;;;;;;;17.88;7.82;;;;;;;33.41;40.81;100638.34;5060137;28;20047;-70
2021/07/29 09:25:27;;;;;;;21.42;12.32;;;;;;;34.02;40.31;100639.84;5057771;28;20056;-70
2021/07/29 09:28:31;;;;;;;19.70;13.20;;;;;;;34.15;38.80;100637.56;5060153;28;20195;-70
2021/07/29 09:31:19;;;;;;;19.45;9.43;;;;;;;33.74;39.90;100633.53;5054632;28;20415;-70
2021/07/29 09:34:03;;;;;;;20.67;9.15;;;;;;;34.48;38.73;100634.72;5059934;28;20402;-70
2021/07/29 09:37:06;;;;;;;38.80;9.65;;;;;;;31.26;44.39;100630.09;5033837;28;20414;-72
2021/07/29 09:39:59;;;;;;;23.13;11.95;;;;;;;28.63;51.96;100634.13;5039913;28;20041;-71
2021/07/29 09:42:44;;;;;;;29.02;12.30;;;;;;;28.04;53.94;100626.78;5039156;28;20045;-70
2021/07/29 09:45:32;;;;;;;28.27;12.82;;;;;;;27.73;54.59;100628.34;5037386;28;20406;-71
2021/07/29 09:48:21;;;;;;;24.92;14.60;;;;;;;27.44;55.52;100625.38;5039719;28;20406;-71
2021/07/29 09:51:09;;;;;;;23.17;12.85;;;;;;;27.18;55.62;100620.75;5039693;28;20041;-70
2021/07/29 09:53:55;;;;;;;22.35;11.10;;;;;;;27.06;56.18;100613.84;5039641;28;20672;-71
2021/07/29 09:56:42;;;;;;;22.90;11.68;;;;;;;27.16;55.87;100612.81;5033973;28;20415;-71
2021/07/29 09:59:27;;;;;;;18.52;12.82;;;;;;;26.97;56.17;100608.00;5039555;28;20495;-71
2021/07/29 10:02:12;;;;;;;21.20;13.00;;;;;;;27.05;55.82;100612.25;5033092;28;20045;-71
2021/07/29 10:05:00;;;;;;;15.20;9.80;;;;;;;26.92;56.19;100608.50;5032642;28;20045;-70
2021/07/29 10:07:48;;;;;;;16.20;9.57;;;;;;;26.76;57.33;100612.00;5039457;28;20513;-70
2021/07/29 10:10:33;;;;;;;20.83;9.60;;;;;;;26.69;57.81;100600.19;5039288;28;20454;-70
2021/07/29 10:13:18;;;;;;;14.60;9.02;;;;;;;26.64;58.11;100600.69;5039289;28;20048;-71
2021/07/29 10:16:04;;;;;;;14.00;8.02;;;;;;;26.74;57.17;100608.06;5032640;28;20056;-71
2021/07/29 10:18:55;;;;;;;17.85;8.90;;;;;;;26.71;57.28;100601.34;5039244;28;20068;-71
2021/07/29 10:21:41;;;;;;;19.13;8.65;;;;;;;26.61;57.86;100601.53;5039258;28;20053;-71
2021/07/29 10:24:53;;;;;;;12.20;8.10;;;;;;;26.54;57.44;100598.88;5039057;28;20048;-70
2021/07/29 10:27:38;;;;;;;14.77;7.72;;;;;;;26.49;57.90;100593.78;5038902;28;20045;-71
2021/07/29 10:30:28;;;;;;;14.88;8.45;;;;;;;26.49;57.82;100596.59;5038874;28;20053;-70
2021/07/29 10:33:17;;;;;;;16.80;8.45;;;;;;;26.47;57.96;100591.41;5039354;28;20068;-71
2021/07/29 10:36:03;;;;;;;13.15;9.23;;;;;;;26.42;58.09;100586.34;5035097;28;20044;-71
2021/07/29 10:38:53;;;;;;;13.85;7.10;;;;;;;26.49;58.74;100589.00;5038791;28;20518;-71
2021/07/29 10:41:40;;;;;;;15.00;7.03;;;;;;;26.40;58.54;100591.56;5032246;28;20045;-71
2021/07/29 10:44:31;;;;;;;12.63;6.68;;;;;;;26.24;59.40;100592.25;5038694;28;20541;-70
2021/07/29 10:47:34;;;;;;;11.60;7.10;;;;;;;26.25;59.33;100582.69;5039042;28;20048;-71
2021/07/29 10:50:20;;;;;;;15.80;8.18;;;;;;;26.28;59.32;100572.66;5032007;28;20056;-70
2021/07/29 10:53:04;;;;;;;10.27;6.68;;;;;;;26.27;59.03;100585.81;5032376;28;20048;-71
2021/07/29 10:55:50;;;;;;;16.80;8.57;;;;;;;26.18;59.30;100577.19;5035014;28;20052;-71
2021/07/29 10:58:40;;;;;;;9.50;6.47;;;;;;;26.23;58.68;100587.09;5037572;28;20163;-71
2021/07/29 11:01:47;;;;;;;12.93;6.65;;;;;;;26.35;58.09;100576.13;5038593;28;20131;-71
2021/07/29 11:04:53;;;;;;;12.38;7.30;;;;;;;26.45;57.63;100577.13;5037846;28;20424;-71
2021/07/29 11:07:41;;;;;;;10.35;6.30;;;;;;;26.51;57.68;100571.84;5038467;28;20052;-71
2021/07/29 11:10:28;;;;;;;10.63;6.97;;;;;;;26.32;58.22;100562.22;5038305;28;20411;-70
2021/07/29 11:13:14;;;;;;;12.70;6.72;;;;;;;26.41;57.83;100562.47;5038535;28;20060;-70
2021/07/29 11:16:01;;;;;;;9.20;6.57;;;;;;;26.33;57.95;100559.00;5034491;28;20048;-70
2021/07/29 11:19:01;;;;;;;13.43;6.32;;;;;;;26.40;57.80;100560.88;5037448;28;20056;-70
2021/07/29 11:22:10;;;;;;;10.98;5.78;;;;;;;26.69;56.59;100561.13;5038326;28;20056;-71
2021/07/29 11:25:06;;;;;;;10.73;6.60;;;;;;;26.51;57.37;100558.69;5037299;28;20518;-71
2021/07/29 11:27:50;;;;;;;12.60;6.25;;;;;;;26.67;56.39;100558.75;5038373;28;20048;-71
2021/07/29 11:30:42;;;;;;;17.95;6.90;;;;;;;26.58;57.08;100550.16;5038171;28;20111;-71
2021/07/29 11:33:29;;;;;;;17.50;7.65;;;;;;;26.38;57.42;100547.38;5038335;28;20048;-71
2021/07/29 11:36:16;;;;;;;12.82;5.97;;;;;;;26.55;56.84;100550.25;5033575;28;20052;-71
2021/07/29 11:39:03;;;;;;;17.77;8.35;;;;;;;26.52;57.60;100548.28;5037510;28;20051;-71
2021/07/29 11:41:53;;;;;;;11.20;6.57;;;;;;;26.45;57.91;100552.03;5038124;28;20044;-70
2021/07/29 11:44:49;;;;;;;11.82;6.68;;;;;;;26.42;58.02;100543.72;5038182;28;20048;-70
2021/07/29 11:47:38;;;;;;;13.23;6.18;;;;;;;26.42;57.37;100538.94;5038200;28;20056;-71
2021/07/29 11:50:40;;;;;;;13.65;6.75;;;;;;;26.64;57.06;100542.09;5038184;28;20052;-71
2021/07/29 11:53:39;;;;;;;16.00;6.70;;;;;;;26.55;57.54;100539.09;5038124;28;20514;-71
2021/07/29 11:56:24;;;;;;;12.10;7.20;;;;;;;26.46;58.33;100542.47;5033025;28;20045;-70
2021/07/29 11:59:09;;;;;;;15.30;7.47;;;;;;;26.50;57.84;100540.38;5038056;28;20048;-70
2021/07/29 12:01:56;;;;;;;11.80;6.60;;;;;;;26.63;57.29;100537.72;5037922;28;20044;-70
2021/07/29 12:04:43;;;;;;;12.45;6.60;;;;;;;26.61;56.46;100543.75;5036930;28;20075;-71
2021/07/29 12:07:27;;;;;;;12.77;7.40;;;;;;;26.44;57.57;100528.13;5040878;28;20048;-71
2021/07/29 12:10:16;;;;;;;14.60;6.55;;;;;;;26.62;56.40;100520.19;5041571;28;20053;-70
2021/07/29 12:13:01;;;;;;;11.20;6.55;;;;;;;26.50;57.04;100528.44;5041756;28;20044;-70
2021/07/29 12:15:51;;;;;;;12.75;5.30;;;;;;;27.33;51.86;100523.50;5038480;28;20045;-70
2021/07/29 12:18:36;;;;;;;9.70;5.22;;;;;;;27.33;52.47;100526.31;5040613;28;20116;-70
2021/07/29 12:21:32;;;;;;;11.20;6.10;;;;;;;26.79;55.32;100526.63;5041408;28;20045;-70
2021/07/29 12:24:17;;;;;;;14.13;6.13;;;;;;;26.58;55.94;100524.28;5041471;28;20048;-70
2021/07/29 12:27:09;;;;;;;9.90;6.22;;;;;;;26.75;55.28;100517.56;5041310;28;20540;-70
2021/07/29 12:29:54;;;;;;;13.57;4.97;;;;;;;27.00;54.50;100526.22;5041269;28;20514;-70
2021/07/29 12:32:39;;;;;;;12.82;5.93;;;;;;;26.67;55.41;100510.53;5034938;28;20056;-70
2021/07/29 12:35:24;;;;;;;6.63;5.20;;;;;;;26.74;55.39;100508.41;5038848;28;20048;-70
2021/07/29 12:38:09;;;;;;;8.73;5.40;;;;;;;26.68;55.89;100509.31;5041173;28;20056;-70
2021/07/29 12:40:54;;;;;;;12.20;5.68;;;;;;;26.59;56.08;100506.31;5034781;28;20064;-70
2021/07/29 12:43:39;;;;;;;9.07;5.65;;;;;;;26.61;54.65;100507.50;5041083;28;20057;-70